Terminal Aerodrome Forecast
Issued by NWS Paducah, KY

Home | Current Version | Previous Version | Text Only | Print | Product List | Glossary On
Versions: 1 2 3 4 5 6 7 8 9 10 11 12 13 14 15 16 17 18 19 20 21 22 23 24
274
FTUS43 KPAH 191002 AAB
TAFEVV
TAF AMD
KEVV 191002Z 1910/2006 VRB04KT P6SM VCSH BKN025
     FM191100 00000KT 5SM BR SCT045 BKN120
     FM191400 19004KT P6SM SCT030=

USA.gov is the U.S. government's official web portal to all federal, state and local government web resources and services.